Time;durP1;ratioP1;P1;durP2;ratioP2;P2;SDS_P1;SDS_P2;PMS_P1;PMS_P2;Temp;Humidity;BMP_temperature;BMP_pressure;BME280_temperature;BME280_humidity;BME280_pressure;Samples;Min_cycle;Max_cycle;Signal;HPM_P1;HPM_P2
2024/02/20 00:02:08;;;;;;;12.25;8.80;;;10.80;96.70;;;;;;4943592;28;20111;-66
2024/02/20 00:04:39;;;;;;;11.45;7.85;;;10.70;96.70;;;;;;4928726;29;20055;-66
2024/02/20 00:07:08;;;;;;;9.32;7.93;;;10.70;96.70;;;;;;4920717;29;20055;-66
2024/02/20 00:09:38;;;;;;;11.35;8.32;;;10.60;96.70;;;;;;4924697;29;20138;-66
2024/02/20 00:12:09;;;;;;;15.00;9.15;;;10.60;96.70;;;;;;4923265;29;20051;-66
2024/02/20 00:14:40;;;;;;;11.55;8.63;;;10.60;96.70;;;;;;4908909;29;20509;-66
2024/02/20 00:17:09;;;;;;;14.48;9.43;;;10.50;96.70;;;;;;4912782;29;20110;-65
2024/02/20 00:19:37;;;;;;;10.38;8.60;;;10.50;96.70;;;;;;4930503;29;20102;-65
2024/02/20 00:22:06;;;;;;;12.10;9.68;;;10.50;96.70;;;;;;4927553;29;20055;-66
2024/02/20 00:24:35;;;;;;;10.88;8.77;;;10.50;96.70;;;;;;4941035;29;20043;-65
2024/02/20 00:27:04;;;;;;;11.63;8.98;;;10.60;96.70;;;;;;4911565;29;20059;-66
2024/02/20 00:29:32;;;;;;;11.27;8.75;;;10.50;96.70;;;;;;4919528;29;20059;-65
2024/02/20 00:32:04;;;;;;;9.77;8.57;;;10.50;96.70;;;;;;4927909;29;20082;-65
2024/02/20 00:34:33;;;;;;;14.52;7.95;;;10.50;96.70;;;;;;4918669;29;20047;-65
2024/02/20 00:37:03;;;;;;;12.60;9.15;;;10.50;96.70;;;;;;4916689;29;20139;-65
2024/02/20 00:39:34;;;;;;;11.02;8.65;;;10.40;96.70;;;;;;4912187;29;20059;-66
2024/02/20 00:42:03;;;;;;;11.75;8.38;;;10.40;96.70;;;;;;4910864;29;20096;-66
2024/02/20 00:44:31;;;;;;;10.55;8.80;;;10.50;96.70;;;;;;4926852;29;20244;-65
2024/02/20 00:47:04;;;;;;;13.15;8.57;;;10.50;96.70;;;;;;4912780;29;20129;-66
2024/02/20 00:49:32;;;;;;;13.30;9.02;;;10.50;96.70;;;;;;4942456;29;20059;-66
2024/02/20 00:52:00;;;;;;;12.43;10.05;;;10.50;96.70;;;;;;4924739;29;20612;-65
2024/02/20 00:54:29;;;;;;;12.32;9.13;;;10.50;96.70;;;;;;4930574;28;20082;-65
2024/02/20 00:56:58;;;;;;;11.75;9.82;;;10.50;96.70;;;;;;4925206;29;20043;-66
2024/02/20 00:59:29;;;;;;;10.55;9.40;;;10.50;96.70;;;;;;4927399;29;20055;-65
2024/02/20 01:01:58;;;;;;;13.95;10.55;;;10.50;96.70;;;;;;4912151;29;20103;-65
2024/02/20 01:04:31;;;;;;;13.70;9.93;;;10.60;96.70;;;;;;4912039;29;20059;-65
2024/02/20 01:07:00;;;;;;;11.57;10.25;;;10.60;96.70;;;;;;4925728;29;20505;-65
2024/02/20 01:09:28;;;;;;;9.88;8.25;;;10.50;96.70;;;;;;4910082;29;20114;-66
2024/02/20 01:11:57;;;;;;;12.65;8.27;;;10.50;96.70;;;;;;4907133;29;20074;-66
2024/02/20 01:14:25;;;;;;;9.20;8.10;;;10.50;96.70;;;;;;4911160;29;20039;-65
2024/02/20 01:16:54;;;;;;;12.15;8.35;;;10.60;96.70;;;;;;4924649;29;20083;-65
2024/02/20 01:19:22;;;;;;;10.93;8.90;;;10.60;96.70;;;;;;4924311;29;20058;-66
2024/02/20 01:21:55;;;;;;;10.30;8.57;;;10.60;96.70;;;;;;4927863;29;20453;-66
2024/02/20 01:24:23;;;;;;;11.65;7.75;;;10.60;96.70;;;;;;4908806;29;20056;-65
2024/02/20 01:26:53;;;;;;;9.45;8.07;;;10.50;96.70;;;;;;4922603;29;20051;-65
2024/02/20 01:29:21;;;;;;;10.18;8.05;;;10.50;96.70;;;;;;4922464;29;20051;-65
2024/02/20 01:31:51;;;;;;;10.30;8.50;;;10.50;96.70;;;;;;4923659;29;20127;-65
2024/02/20 01:34:21;;;;;;;8.95;7.55;;;10.60;96.70;;;;;;4923236;29;20425;-65
2024/02/20 01:36:52;;;;;;;8.95;7.80;;;10.60;96.70;;;;;;4920192;29;20059;-65
2024/02/20 01:39:22;;;;;;;10.38;8.48;;;10.50;96.70;;;;;;4928146;29;20062;-66
2024/02/20 01:41:51;;;;;;;10.32;8.55;;;10.50;96.70;;;;;;4924696;29;20063;-66
2024/02/20 01:44:31;;;;;;;11.82;8.73;;;10.50;96.70;;;;;;4912022;29;20044;-65
2024/02/20 01:47:02;;;;;;;12.85;9.82;;;10.60;96.70;;;;;;4904843;29;20048;-65
2024/02/20 01:49:32;;;;;;;11.75;9.82;;;10.60;96.70;;;;;;4929895;28;20056;-65
2024/02/20 01:52:01;;;;;;;13.73;9.25;;;10.50;96.70;;;;;;4912150;29;20119;-65
2024/02/20 01:54:31;;;;;;;11.35;8.55;;;10.50;96.70;;;;;;4914362;29;20076;-65
2024/02/20 01:57:02;;;;;;;10.23;8.75;;;10.40;96.70;;;;;;4915733;29;20095;-65
2024/02/20 01:59:32;;;;;;;11.40;8.77;;;10.30;96.70;;;;;;4925165;29;20765;-65
2024/02/20 02:02:01;;;;;;;10.32;8.55;;;10.30;96.70;;;;;;4923222;29;20126;-66
2024/02/20 02:04:29;;;;;;;11.05;8.60;;;10.20;96.70;;;;;;4922119;29;20063;-65
2024/02/20 02:06:59;;;;;;;9.43;7.55;;;10.10;96.70;;;;;;4924633;29;20056;-65
2024/02/20 02:09:28;;;;;;;10.43;8.20;;;10.10;96.70;;;;;;4922499;29;20148;-65
2024/02/20 02:11:59;;;;;;;10.10;7.22;;;10.20;96.70;;;;;;4905367;29;20145;-65
2024/02/20 02:14:29;;;;;;;8.52;6.63;;;10.10;96.70;;;;;;4925761;29;20054;-65
2024/02/20 02:16:58;;;;;;;11.35;6.80;;;10.00;96.70;;;;;;4905297;29;20048;-65
2024/02/20 02:19:29;;;;;;;10.45;6.68;;;9.90;96.70;;;;;;4907933;29;20099;-66
2024/02/20 02:21:57;;;;;;;8.82;7.60;;;9.90;96.70;;;;;;4927486;29;20047;-65
2024/02/20 02:24:27;;;;;;;10.30;6.55;;;9.90;96.70;;;;;;4923827;29;20436;-65
2024/02/20 02:26:57;;;;;;;8.60;6.90;;;9.90;96.70;;;;;;4911153;29;20054;-65
2024/02/20 02:29:28;;;;;;;11.23;7.97;;;9.90;96.70;;;;;;4927891;29;20079;-65
2024/02/20 02:31:59;;;;;;;9.15;6.20;;;9.90;96.70;;;;;;4941150;29;20043;-65
2024/02/20 02:34:30;;;;;;;9.48;6.85;;;9.80;96.70;;;;;;4930519;29;20058;-65
2024/02/20 02:36:59;;;;;;;11.80;7.70;;;9.90;96.70;;;;;;4941177;29;20521;-65
2024/02/20 02:39:28;;;;;;;11.43;7.93;;;9.90;96.70;;;;;;4913942;29;20051;-65
2024/02/20 02:41:59;;;;;;;15.18;8.45;;;9.90;96.70;;;;;;4915203;29;20059;-65
2024/02/20 02:44:27;;;;;;;18.17;9.77;;;10.00;96.70;;;;;;4913343;29;20063;-65
2024/02/20 02:46:55;;;;;;;18.58;10.10;;;10.10;96.70;;;;;;4908379;29;20074;-65
2024/02/20 02:49:24;;;;;;;17.85;9.82;;;10.10;96.70;;;;;;4909342;29;20051;-65
2024/02/20 02:51:53;;;;;;;20.80;10.55;;;10.10;96.70;;;;;;4909375;29;20063;-64
2024/02/20 02:54:25;;;;;;;23.63;10.60;;;10.20;96.70;;;;;;4922214;29;20070;-65
2024/02/20 02:56:53;;;;;;;26.02;11.45;;;10.20;96.70;;;;;;4911964;29;20055;-65
2024/02/20 02:59:26;;;;;;;28.27;11.88;;;10.20;96.70;;;;;;4939994;29;20178;-66
2024/02/20 03:01:56;;;;;;;28.58;12.18;;;10.20;96.70;;;;;;4939947;29;20501;-66
2024/02/20 03:04:31;;;;;;;21.17;10.20;;;10.20;96.70;;;;;;4912207;29;20123;-65
2024/02/20 03:07:00;;;;;;;19.35;10.73;;;10.10;96.70;;;;;;4913540;29;20074;-65
2024/02/20 03:09:30;;;;;;;17.63;9.45;;;10.10;96.70;;;;;;4928440;29;20588;-65
2024/02/20 03:11:59;;;;;;;17.38;9.27;;;10.10;96.70;;;;;;4924562;29;20098;-65
2024/02/20 03:14:29;;;;;;;15.48;8.98;;;10.20;96.70;;;;;;4928997;29;20195;-65
2024/02/20 03:16:58;;;;;;;13.88;9.20;;;10.20;96.70;;;;;;4925025;29;20164;-65
2024/02/20 03:19:26;;;;;;;12.55;8.95;;;10.20;96.70;;;;;;4927211;29;20107;-65
2024/02/20 03:21:59;;;;;;;12.43;8.85;;;10.10;96.70;;;;;;4927098;29;20060;-65
2024/02/20 03:24:27;;;;;;;12.73;9.70;;;10.00;96.70;;;;;;4927462;29;20060;-65
2024/02/20 03:26:56;;;;;;;13.15;10.18;;;9.90;96.70;;;;;;4944622;29;20047;-65
2024/02/20 03:29:25;;;;;;;12.57;9.63;;;9.90;96.70;;;;;;4928729;29;20062;-65
2024/02/20 03:31:58;;;;;;;14.50;10.10;;;9.80;96.70;;;;;;4911034;29;20533;-66
2024/02/20 03:34:26;;;;;;;13.20;9.75;;;9.80;96.70;;;;;;4928963;29;20469;-65
2024/02/20 03:36:54;;;;;;;11.75;9.90;;;9.80;96.70;;;;;;4925382;29;20421;-65
2024/02/20 03:39:25;;;;;;;12.68;9.55;;;9.80;96.70;;;;;;4924565;29;20452;-65
2024/02/20 03:41:53;;;;;;;12.82;10.77;;;9.80;96.70;;;;;;4920896;29;20063;-65
2024/02/20 03:44:24;;;;;;;13.38;10.10;;;9.70;96.70;;;;;;4907345;29;20116;-66
2024/02/20 03:46:53;;;;;;;16.10;11.10;;;9.70;96.70;;;;;;4908763;29;20164;-65
2024/02/20 03:49:23;;;;;;;16.38;11.25;;;9.60;96.70;;;;;;4909741;29;20055;-65
2024/02/20 03:51:53;;;;;;;15.30;10.75;;;9.60;96.70;;;;;;4908664;29;20146;-65
2024/02/20 03:54:23;;;;;;;15.30;11.07;;;9.60;96.70;;;;;;4912353;29;20131;-65
2024/02/20 03:56:52;;;;;;;15.13;10.95;;;9.60;96.70;;;;;;4913801;29;20114;-65
2024/02/20 03:59:20;;;;;;;17.17;11.30;;;9.60;96.70;;;;;;4921799;29;20504;-65
2024/02/20 04:01:48;;;;;;;17.75;11.88;;;9.60;96.70;;;;;;4911737;29;20055;-65
2024/02/20 04:04:16;;;;;;;17.70;12.43;;;9.60;96.70;;;;;;4913392;29;20050;-65
2024/02/20 04:06:48;;;;;;;18.92;12.35;;;9.60;96.70;;;;;;4913795;29;20501;-65
2024/02/20 04:09:19;;;;;;;21.60;12.25;;;9.60;96.70;;;;;;4931053;29;20056;-65
2024/02/20 04:11:48;;;;;;;19.05;11.90;;;9.60;96.70;;;;;;4913515;29;20127;-66
2024/02/20 04:14:19;;;;;;;14.88;11.40;;;9.80;96.70;;;;;;4913065;29;20568;-65
2024/02/20 04:16:48;;;;;;;18.20;11.90;;;9.90;96.70;;;;;;4925531;29;20166;-65
2024/02/20 04:19:17;;;;;;;15.73;11.70;;;9.90;96.70;;;;;;4925859;29;20075;-65
2024/02/20 04:21:47;;;;;;;18.88;12.05;;;9.90;96.70;;;;;;4927630;29;20052;-65
2024/02/20 04:24:16;;;;;;;23.83;13.07;;;9.90;96.70;;;;;;4927122;29;20060;-65
2024/02/20 04:26:46;;;;;;;21.58;13.65;;;9.80;96.70;;;;;;4907942;29;20043;-65
2024/02/20 04:29:15;;;;;;;19.40;12.88;;;9.70;96.70;;;;;;4943631;28;20055;-65
2024/02/20 04:31:46;;;;;;;20.50;14.20;;;9.60;96.70;;;;;;4912437;29;20051;-65
2024/02/20 04:34:15;;;;;;;18.52;13.20;;;9.50;96.70;;;;;;4928187;29;20552;-65
2024/02/20 04:36:44;;;;;;;16.92;12.73;;;9.50;96.70;;;;;;4926439;29;20040;-65
2024/02/20 04:39:53;;;;;;;17.33;12.27;;;9.50;96.70;;;;;;4910378;29;20064;-65
2024/02/20 04:42:22;;;;;;;16.48;12.77;;;9.50;96.70;;;;;;4934933;29;20552;-65
2024/02/20 04:44:52;;;;;;;13.75;10.52;;;9.50;96.70;;;;;;4911272;29;20066;-65
2024/02/20 04:47:21;;;;;;;14.43;11.07;;;9.60;96.70;;;;;;4908384;29;20142;-66
2024/02/20 04:49:52;;;;;;;13.52;10.82;;;9.50;96.70;;;;;;4927604;29;20175;-65
2024/02/20 04:52:23;;;;;;;14.73;10.52;;;9.50;96.70;;;;;;4925129;29;20048;-65
2024/02/20 04:54:56;;;;;;;15.10;11.48;;;9.50;96.70;;;;;;4906030;29;20053;-65
2024/02/20 04:57:29;;;;;;;14.73;11.40;;;9.50;96.70;;;;;;4922592;29;20051;-65
2024/02/20 04:59:57;;;;;;;16.83;11.88;;;9.50;96.70;;;;;;4905610;29;20761;-65
2024/02/20 05:02:30;;;;;;;12.88;10.88;;;9.50;96.70;;;;;;4925220;29;20044;-65
2024/02/20 05:04:59;;;;;;;15.93;11.82;;;9.50;96.70;;;;;;4927854;29;20048;-65
2024/02/20 05:07:30;;;;;;;14.90;11.95;;;9.50;96.70;;;;;;4911688;29;20588;-65
2024/02/20 05:10:02;;;;;;;14.43;11.25;;;9.50;96.70;;;;;;4919844;29;20056;-65
2024/02/20 05:12:37;;;;;;;14.15;11.65;;;9.50;96.70;;;;;;4919232;29;20058;-65
2024/02/20 05:15:06;;;;;;;15.45;11.65;;;9.60;96.70;;;;;;4911574;29;20112;-65
2024/02/20 05:17:35;;;;;;;15.48;11.85;;;9.70;96.70;;;;;;4926543;29;20421;-65
2024/02/20 05:20:06;;;;;;;15.95;12.52;;;9.70;96.70;;;;;;4906174;29;20674;-65
2024/02/20 05:22:34;;;;;;;13.73;11.93;;;9.70;96.70;;;;;;4925480;29;20054;-65
2024/02/20 05:25:08;;;;;;;15.10;12.13;;;9.80;96.70;;;;;;4922577;29;20087;-65
2024/02/20 05:27:37;;;;;;;13.80;11.65;;;9.80;96.70;;;;;;4911040;29;20047;-65
2024/02/20 05:30:07;;;;;;;16.40;12.50;;;9.80;96.70;;;;;;4912579;29;20058;-65
2024/02/20 05:32:37;;;;;;;14.43;12.25;;;9.90;96.70;;;;;;4912226;29;20055;-66
2024/02/20 05:35:08;;;;;;;13.90;11.65;;;9.80;96.70;;;;;;4911794;29;20055;-66
2024/02/20 05:37:36;;;;;;;17.20;12.85;;;9.90;96.70;;;;;;4925952;29;20515;-65
2024/02/20 05:40:12;;;;;;;15.02;12.38;;;9.90;96.70;;;;;;4925880;29;20056;-66
2024/02/20 05:42:40;;;;;;;18.30;12.98;;;9.90;96.70;;;;;;4923840;29;20083;-65
2024/02/20 05:45:10;;;;;;;14.65;12.32;;;9.90;96.70;;;;;;4906136;29;20220;-65
2024/02/20 05:47:40;;;;;;;14.93;12.52;;;9.90;96.70;;;;;;4907582;29;20052;-65
2024/02/20 05:50:11;;;;;;;13.23;11.27;;;9.90;96.70;;;;;;4922407;29;20059;-65
2024/02/20 05:52:40;;;;;;;16.77;12.90;;;10.00;96.70;;;;;;4905617;29;20063;-65
2024/02/20 05:55:10;;;;;;;13.30;11.75;;;9.90;96.70;;;;;;4927320;29;20131;-65
2024/02/20 05:57:40;;;;;;;15.02;11.80;;;9.90;96.70;;;;;;4915145;29;20056;-65
2024/02/20 06:00:12;;;;;;;15.15;12.10;;;9.90;96.70;;;;;;4914909;29;20048;-65
2024/02/20 06:02:41;;;;;;;17.73;13.20;;;9.80;96.70;;;;;;4926468;29;20137;-65
2024/02/20 06:05:10;;;;;;;16.83;12.15;;;9.80;96.70;;;;;;4912338;29;20048;-65
2024/02/20 06:07:41;;;;;;;16.67;13.15;;;9.80;96.70;;;;;;4916068;29;20119;-65
2024/02/20 06:10:11;;;;;;;15.85;12.10;;;9.90;96.70;;;;;;4904716;29;20060;-65
2024/02/20 06:12:42;;;;;;;15.80;12.20;;;9.80;96.70;;;;;;4927923;29;20060;-65
2024/02/20 06:15:10;;;;;;;15.55;11.25;;;9.90;96.70;;;;;;4925582;29;20623;-65
2024/02/20 06:17:43;;;;;;;16.17;11.52;;;9.90;96.70;;;;;;4939641;29;20177;-65
2024/02/20 06:20:11;;;;;;;14.90;12.15;;;9.90;96.70;;;;;;4914484;29;20098;-65
2024/02/20 06:22:42;;;;;;;17.23;11.68;;;9.80;96.70;;;;;;4930706;29;20106;-66
2024/02/20 06:25:12;;;;;;;17.75;11.93;;;9.70;96.70;;;;;;4929424;29;20076;-65
2024/02/20 06:27:44;;;;;;;13.95;12.00;;;9.80;96.70;;;;;;4943496;29;20083;-65
2024/02/20 06:30:14;;;;;;;16.92;11.98;;;9.70;96.70;;;;;;4912874;29;20086;-65
2024/02/20 06:32:43;;;;;;;15.23;12.25;;;9.70;96.70;;;;;;4909557;29;20150;-65
2024/02/20 06:35:12;;;;;;;17.25;11.30;;;9.60;96.70;;;;;;4911367;29;20052;-65
2024/02/20 06:37:42;;;;;;;16.30;11.48;;;9.70;96.70;;;;;;4930395;29;20052;-65
2024/02/20 06:40:12;;;;;;;16.20;11.65;;;9.70;96.70;;;;;;4926670;29;20694;-65
2024/02/20 06:42:41;;;;;;;18.33;13.07;;;9.60;96.70;;;;;;4913836;29;20056;-65
2024/02/20 06:45:10;;;;;;;16.02;11.73;;;9.70;96.70;;;;;;4926472;29;20060;-65
2024/02/20 06:47:41;;;;;;;14.27;11.98;;;9.80;96.70;;;;;;4930912;29;20471;-66
2024/02/20 06:50:11;;;;;;;19.02;11.75;;;9.80;96.70;;;;;;4909266;29;20067;-65
2024/02/20 06:52:43;;;;;;;16.38;11.85;;;9.80;96.70;;;;;;4945312;29;20087;-65
2024/02/20 06:55:14;;;;;;;14.85;11.13;;;9.70;96.70;;;;;;4945634;29;20055;-65
2024/02/20 06:57:43;;;;;;;14.55;11.48;;;9.70;96.70;;;;;;4914799;29;20139;-65
2024/02/20 07:00:14;;;;;;;16.27;12.25;;;9.70;96.70;;;;;;4908739;29;20058;-65
2024/02/20 07:02:45;;;;;;;20.05;12.52;;;9.70;96.70;;;;;;4924506;29;20063;-65
2024/02/20 07:05:14;;;;;;;13.90;10.88;;;9.60;96.70;;;;;;4913332;29;20060;-66
2024/02/20 07:07:44;;;;;;;18.15;12.05;;;9.60;96.70;;;;;;4910051;29;20417;-65
2024/02/20 07:10:15;;;;;;;15.10;12.25;;;9.60;96.70;;;;;;4914086;29;20656;-64
2024/02/20 07:12:43;;;;;;;16.90;11.90;;;9.60;96.70;;;;;;4928048;29;20059;-64
2024/02/20 07:15:12;;;;;;;19.27;12.63;;;9.60;96.70;;;;;;4913677;29;20139;-65
2024/02/20 07:17:42;;;;;;;16.95;13.00;;;9.60;96.70;;;;;;4908185;29;20051;-65
2024/02/20 07:20:12;;;;;;;16.90;14.02;;;9.60;96.70;;;;;;4921147;29;20155;-65
2024/02/20 07:22:41;;;;;;;16.92;12.90;;;9.60;96.70;;;;;;4926595;29;20086;-64
2024/02/20 07:25:11;;;;;;;16.10;13.63;;;9.70;96.70;;;;;;4923233;29;20056;-65
2024/02/20 07:27:43;;;;;;;18.25;14.60;;;9.70;96.70;;;;;;4926974;29;20056;-65
2024/02/20 07:30:13;;;;;;;17.95;14.05;;;9.70;96.70;;;;;;4921484;29;20083;-65
2024/02/20 07:32:42;;;;;;;17.00;14.60;;;9.70;96.70;;;;;;4929303;29;20086;-65
2024/02/20 07:35:12;;;;;;;21.95;15.18;;;9.70;96.70;;;;;;4928842;29;20422;-65
2024/02/20 07:37:42;;;;;;;21.98;15.15;;;9.70;96.70;;;;;;4914725;29;20059;-65
2024/02/20 07:40:11;;;;;;;18.63;15.00;;;9.80;96.70;;;;;;4909507;29;20048;-64
2024/02/20 07:42:44;;;;;;;19.20;14.68;;;9.90;96.70;;;;;;4928998;29;20059;-64
2024/02/20 07:45:12;;;;;;;19.75;15.02;;;10.00;96.70;;;;;;4913676;29;20059;-64
2024/02/20 07:47:42;;;;;;;19.38;14.45;;;10.10;96.70;;;;;;4914293;29;20052;-64
2024/02/20 07:50:12;;;;;;;21.25;14.07;;;10.10;96.70;;;;;;4922391;29;20066;-64
2024/02/20 07:52:42;;;;;;;21.50;15.43;;;10.10;96.70;;;;;;4914614;29;20051;-64
2024/02/20 07:55:13;;;;;;;18.23;13.90;;;10.10;96.70;;;;;;4929696;29;20066;-64
2024/02/20 07:57:44;;;;;;;15.15;13.27;;;10.10;96.70;;;;;;4914093;29;20892;-64
2024/02/20 08:00:16;;;;;;;19.38;14.40;;;10.20;96.70;;;;;;4928599;29;20052;-64
2024/02/20 08:02:45;;;;;;;19.13;13.98;;;10.30;96.70;;;;;;4937657;29;20074;-64
2024/02/20 08:05:16;;;;;;;18.33;15.13;;;10.40;96.70;;;;;;4929101;29;20043;-64
2024/02/20 08:07:45;;;;;;;17.70;15.02;;;10.50;96.70;;;;;;4928985;29;21216;-64
2024/02/20 08:10:13;;;;;;;18.70;15.15;;;10.50;96.70;;;;;;4944874;29;20047;-64
2024/02/20 08:12:44;;;;;;;22.02;16.35;;;10.60;96.70;;;;;;4929508;29;20167;-64
2024/02/20 08:15:14;;;;;;;22.42;17.00;;;10.60;96.70;;;;;;4913396;29;20429;-65
2024/02/20 08:17:42;;;;;;;21.98;17.52;;;10.70;96.70;;;;;;4910773;29;20056;-64
2024/02/20 08:20:13;;;;;;;23.42;16.98;;;10.80;96.70;;;;;;4913214;29;20059;-64
2024/02/20 08:22:44;;;;;;;24.02;18.65;;;10.90;96.70;;;;;;4914070;29;20056;-64
2024/02/20 08:25:14;;;;;;;27.20;18.02;;;10.90;96.70;;;;;;4928964;29;20416;-64
2024/02/20 08:27:45;;;;;;;22.20;18.00;;;11.00;96.70;;;;;;4913528;29;20055;-65
2024/02/20 08:30:15;;;;;;;21.23;16.83;;;11.10;96.70;;;;;;4928505;29;20054;-64
2024/02/20 08:32:44;;;;;;;20.75;16.85;;;11.20;96.70;;;;;;4913284;29;20138;-64
2024/02/20 08:35:13;;;;;;;18.90;15.80;;;11.30;96.70;;;;;;4907491;29;20060;-64
2024/02/20 08:37:45;;;;;;;21.25;15.65;;;11.40;96.70;;;;;;4913662;29;20047;-64
2024/02/20 08:40:42;;;;;;;17.77;15.63;;;11.40;96.70;;;;;;4913105;29;20060;-64
2024/02/20 08:43:55;;;;;;;18.92;15.93;;;11.40;96.70;;;;;;4930957;29;20772;-64
2024/02/20 08:47:08;;;;;;;19.17;15.23;;;11.50;96.70;;;;;;4924017;29;20432;-64
2024/02/20 08:50:20;;;;;;;17.60;14.70;;;11.60;96.70;;;;;;4929973;29;20184;-62
2024/02/20 08:53:33;;;;;;;19.10;16.20;;;11.70;96.70;;;;;;4926458;29;20151;-62
2024/02/20 08:56:46;;;;;;;19.27;14.60;;;11.70;96.70;;;;;;4929078;29;20063;-62
2024/02/20 08:59:58;;;;;;;19.58;14.98;;;11.80;96.70;;;;;;4927745;29;20067;-62
2024/02/20 09:03:11;;;;;;;17.90;15.05;;;11.90;96.70;;;;;;4925886;29;20520;-62
2024/02/20 09:06:24;;;;;;;19.27;15.45;;;11.90;96.70;;;;;;4923767;29;20142;-62
2024/02/20 09:09:36;;;;;;;17.65;14.63;;;12.00;96.70;;;;;;4927738;29;20432;-62
2024/02/20 09:12:49;;;;;;;17.05;14.63;;;12.10;96.70;;;;;;4921579;29;20063;-62
2024/02/20 09:16:01;;;;;;;19.45;15.45;;;12.20;96.70;;;;;;4928496;29;20063;-62
2024/02/20 09:19:15;;;;;;;20.48;15.43;;;12.30;96.70;;;;;;4929254;29;20059;-62
2024/02/20 09:22:28;;;;;;;20.42;15.90;;;12.50;96.70;;;;;;4928712;29;20063;-62
2024/02/20 09:25:43;;;;;;;21.40;15.50;;;12.70;96.70;;;;;;4927728;29;20151;-62
2024/02/20 09:28:56;;;;;;;19.17;14.98;;;12.80;96.70;;;;;;4922671;29;20074;-62
2024/02/20 09:32:09;;;;;;;16.33;14.40;;;13.00;96.70;;;;;;4926383;29;20428;-63
2024/02/20 09:35:21;;;;;;;18.77;13.80;;;13.20;96.70;;;;;;4924826;29;20067;-62
2024/02/20 09:38:34;;;;;;;17.42;13.95;;;13.30;96.70;;;;;;4928276;29;20059;-63
2024/02/20 09:41:46;;;;;;;15.43;13.48;;;13.40;96.70;;;;;;4925710;29;20056;-63
2024/02/20 09:44:59;;;;;;;13.27;11.23;;;13.60;96.70;;;;;;4926307;29;20071;-66
2024/02/20 09:48:12;;;;;;;13.55;11.48;;;13.70;96.70;;;;;;4926549;29;20056;-62
2024/02/20 09:51:29;;;;;;;15.23;11.75;;;13.70;96.70;;;;;;4928440;29;20060;-62
2024/02/20 09:54:43;;;;;;;12.93;10.70;;;13.90;96.70;;;;;;4926834;29;20123;-62
2024/02/20 09:57:57;;;;;;;12.30;10.63;;;14.00;96.70;;;;;;4926678;29;20060;-62
2024/02/20 10:01:10;;;;;;;14.10;11.18;;;14.20;96.70;;;;;;4927372;29;20070;-63
2024/02/20 10:04:22;;;;;;;12.13;10.25;;;14.30;96.70;;;;;;4927274;29;20110;-62
2024/02/20 10:07:38;;;;;;;13.13;10.43;;;14.40;96.70;;;;;;4920091;29;20060;-63
2024/02/20 10:10:50;;;;;;;12.15;10.68;;;14.70;96.70;;;;;;4927733;29;20131;-62
2024/02/20 10:14:03;;;;;;;13.43;10.40;;;14.70;96.70;;;;;;4919891;29;20072;-62
2024/02/20 10:17:16;;;;;;;11.30;9.43;;;14.80;96.70;;;;;;4927043;29;20078;-63
2024/02/20 10:20:29;;;;;;;15.23;10.27;;;15.00;96.70;;;;;;4927739;29;20589;-63
2024/02/20 10:23:41;;;;;;;10.68;9.10;;;15.20;96.70;;;;;;4925162;29;20073;-63
2024/02/20 10:26:54;;;;;;;12.15;9.98;;;15.30;96.70;;;;;;4928095;28;20067;-62
2024/02/20 10:30:07;;;;;;;12.18;9.85;;;15.40;96.70;;;;;;4922473;29;20064;-62
2024/02/20 10:33:20;;;;;;;12.05;9.27;;;15.60;96.70;;;;;;4920618;29;20135;-63
2024/02/20 10:36:32;;;;;;;10.15;9.00;;;15.70;96.70;;;;;;4927739;29;20063;-63
2024/02/20 10:39:45;;;;;;;11.80;8.65;;;15.70;96.70;;;;;;4927181;29;20588;-63
2024/02/20 10:42:58;;;;;;;11.43;9.32;;;15.90;96.70;;;;;;4925888;29;20501;-63
2024/02/20 10:46:12;;;;;;;11.20;8.55;;;16.00;96.70;;;;;;4928646;29;20075;-63
2024/02/20 10:49:30;;;;;;;8.60;7.65;;;16.10;96.70;;;;;;4925401;29;20052;-63
2024/02/20 10:52:42;;;;;;;8.88;7.28;;;16.20;96.70;;;;;;4922226;29;20324;-63
2024/02/20 10:55:55;;;;;;;8.93;7.45;;;16.20;96.70;;;;;;4925440;29;20091;-63
2024/02/20 10:59:07;;;;;;;9.57;7.80;;;16.20;96.70;;;;;;4930674;29;20090;-64
2024/02/20 11:02:20;;;;;;;8.05;7.10;;;16.40;96.70;;;;;;4929234;29;20071;-63
2024/02/20 11:05:32;;;;;;;9.45;7.05;;;16.70;96.70;;;;;;4927536;29;20072;-64
2024/02/20 11:08:45;;;;;;;8.18;6.85;;;16.80;96.70;;;;;;4923658;29;20063;-65
2024/02/20 11:11:57;;;;;;;9.82;7.25;;;16.80;96.70;;;;;;4923830;29;20227;-63
2024/02/20 11:15:11;;;;;;;8.15;6.72;;;17.00;96.70;;;;;;4922582;29;20055;-63
2024/02/20 11:18:30;;;;;;;9.05;7.35;;;17.10;96.70;;;;;;4928737;29;20059;-63
2024/02/20 11:21:43;;;;;;;9.20;6.93;;;17.10;96.70;;;;;;4930618;29;20064;-64
2024/02/20 11:24:55;;;;;;;9.55;6.95;;;17.20;96.70;;;;;;4927859;29;20893;-63
2024/02/20 11:28:12;;;;;;;9.30;6.82;;;17.20;96.70;;;;;;4926786;29;20066;-64
2024/02/20 11:31:26;;;;;;;6.95;6.15;;;17.30;96.70;;;;;;4926568;29;20052;-64
2024/02/20 11:34:38;;;;;;;7.47;6.10;;;17.50;96.70;;;;;;4922398;29;20071;-63
2024/02/20 11:37:52;;;;;;;8.85;5.95;;;17.70;96.70;;;;;;4930064;29;20066;-64
2024/02/20 11:41:06;;;;;;;5.35;4.78;;;17.80;96.70;;;;;;4929124;29;20082;-64
2024/02/20 11:44:19;;;;;;;5.07;3.88;;;17.80;96.70;;;;;;4928616;29;20421;-63
2024/02/20 11:47:32;;;;;;;4.18;3.63;;;18.10;96.70;;;;;;4929556;29;20059;-64
2024/02/20 11:50:45;;;;;;;4.63;3.28;;;18.30;96.70;;;;;;4925524;29;20154;-63
2024/02/20 11:53:57;;;;;;;4.60;3.10;;;18.50;96.70;;;;;;4923797;29;20091;-64
2024/02/20 11:57:11;;;;;;;4.65;2.92;;;18.60;96.70;;;;;;4921866;29;20099;-63
2024/02/20 12:00:26;;;;;;;4.10;3.00;;;18.70;96.70;;;;;;4930092;29;20056;-63
2024/02/20 12:03:42;;;;;;;3.17;2.63;;;18.90;96.70;;;;;;4929552;29;20536;-63
2024/02/20 12:06:56;;;;;;;3.88;2.55;;;19.00;96.70;;;;;;4929347;29;20829;-64
2024/02/20 12:10:08;;;;;;;3.00;2.60;;;19.20;96.70;;;;;;4926098;29;20063;-64
2024/02/20 12:13:27;;;;;;;4.13;2.53;;;19.20;96.70;;;;;;4923226;29;20131;-63
2024/02/20 12:16:25;;;;;;;;;;;19.20;96.70;;;;;;4923688;29;20142;-63
2024/02/20 12:19:39;;;;;;;3.60;2.38;;;19.30;96.70;;;;;;4929091;29;19977;-63
2024/02/20 12:22:52;;;;;;;2.55;2.35;;;19.50;96.70;;;;;;4929792;29;20066;-64
2024/02/20 12:26:05;;;;;;;2.05;1.80;;;19.50;96.70;;;;;;4926113;29;20073;-63
2024/02/20 12:29:18;;;;;;;2.10;1.90;;;19.40;96.70;;;;;;4924535;29;20138;-63
2024/02/20 12:32:31;;;;;;;1.88;1.48;;;19.30;96.70;;;;;;4928659;29;20064;-63
2024/02/20 12:35:43;;;;;;;1.98;1.33;;;19.30;96.70;;;;;;4920873;29;20129;-64
2024/02/20 12:38:56;;;;;;;1.70;1.40;;;19.60;96.70;;;;;;4929012;29;20063;-63
2024/02/20 12:42:09;;;;;;;1.95;1.40;;;19.90;96.70;;;;;;4928514;29;20776;-63
2024/02/20 12:45:25;;;;;;;3.20;1.10;;;20.10;96.70;;;;;;4925871;29;20067;-63
2024/02/20 12:48:40;;;;;;;3.53;1.58;;;20.20;96.70;;;;;;4923892;29;20048;-63
2024/02/20 12:51:54;;;;;;;1.52;1.35;;;20.20;96.70;;;;;;4927241;29;20063;-63
2024/02/20 12:55:06;;;;;;;2.15;1.20;;;20.10;96.70;;;;;;4929092;29;20063;-63
2024/02/20 12:58:19;;;;;;;1.83;1.27;;;20.50;96.70;;;;;;4930006;28;20055;-64
2024/02/20 13:01:32;;;;;;;1.70;0.88;;;20.70;96.70;;;;;;4928793;29;20059;-63
2024/02/20 13:04:45;;;;;;;1.60;1.30;;;20.70;96.70;;;;;;4928245;29;20068;-64
2024/02/20 13:07:59;;;;;;;2.00;1.08;;;20.90;96.70;;;;;;4922821;29;20059;-63
2024/02/20 13:11:15;;;;;;;2.38;1.08;;;21.20;96.70;;;;;;4924599;29;20087;-64
2024/02/20 13:14:28;;;;;;;1.88;1.10;;;21.30;96.70;;;;;;4922922;29;20079;-63
2024/02/20 13:17:41;;;;;;;1.52;1.10;;;21.00;96.70;;;;;;4922744;29;20076;-64
2024/02/20 13:20:54;;;;;;;1.40;1.13;;;20.90;96.70;;;;;;4923699;29;20149;-63
2024/02/20 13:24:07;;;;;;;2.22;0.90;;;20.90;96.70;;;;;;4925728;29;20063;-63
2024/02/20 13:27:21;;;;;;;1.15;0.90;;;20.50;96.70;;;;;;4925731;29;20142;-63
2024/02/20 13:30:34;;;;;;;3.58;1.10;;;20.20;96.70;;;;;;4928312;29;20094;-63
2024/02/20 13:33:47;;;;;;;1.23;0.85;;;19.70;96.70;;;;;;4928002;29;20062;-64
2024/02/20 13:37:01;;;;;;;3.10;0.70;;;18.90;96.70;;;;;;4921175;29;20068;-65
2024/02/20 13:40:14;;;;;;;2.40;0.93;;;18.30;96.70;;;;;;4917346;29;20429;-63
2024/02/20 13:43:28;;;;;;;3.38;1.00;;;17.80;96.70;;;;;;4927955;29;20063;-62
2024/02/20 13:46:41;;;;;;;3.40;0.75;;;17.50;96.70;;;;;;4926302;29;20056;-62
2024/02/20 13:49:54;;;;;;;2.75;0.98;;;17.50;96.70;;;;;;4925834;29;20087;-62
2024/02/20 13:53:07;;;;;;;5.43;1.10;;;17.50;96.70;;;;;;4927882;29;20066;-62
2024/02/20 13:56:21;;;;;;;3.15;1.40;;;17.30;96.70;;;;;;4922145;29;20063;-62
2024/02/20 13:59:34;;;;;;;2.13;1.02;;;17.00;96.70;;;;;;4927739;28;20068;-62
2024/02/20 14:02:47;;;;;;;5.85;1.10;;;17.00;96.70;;;;;;4927739;29;20067;-62
2024/02/20 14:06:00;;;;;;;2.08;1.20;;;17.00;96.70;;;;;;4927900;29;20091;-62